Terminal Aerodrome Forecast
Issued by NWS Shreveport, LA

Home | Current Version | Previous Version | Text Only | Print | Product List | Glossary On
Versions: 1 2 3 4 5 6 7 8 9 10 11 12
332
FTUS44 KSHV 240539
TAFGGG
TAF
KGGG 240539Z 2406/2506 00000KT P6SM SKC
     FM241100 19003KT P6SM SCT250
     FM241500 19008KT P6SM BKN250
     FM242000 19011KT P6SM BKN250
     FM250000 17006KT P6SM FEW250=

USA.gov is the U.S. government's official web portal to all federal, state and local government web resources and services.